sensor_id;sensor_type;location;lat;lon;timestamp;P1;durP1;ratioP1;P2;durP2;ratioP2
46689;SDS011;32423;45.398;10.874;2023-07-29T00:02:40;10.15;;;3.42;;
46689;SDS011;32423;45.398;10.874;2023-07-29T00:05:32;14.13;;;3.97;;
46689;SDS011;32423;45.398;10.874;2023-07-29T00:08:24;9.07;;;3.53;;
46689;SDS011;32423;45.398;10.874;2023-07-29T00:11:19;5.65;;;3.10;;
46689;SDS011;32423;45.398;10.874;2023-07-29T00:14:14;10.65;;;3.88;;
46689;SDS011;32423;45.398;10.874;2023-07-29T00:17:08;8.25;;;3.25;;
46689;SDS011;32423;45.398;10.874;2023-07-29T00:20:01;8.50;;;3.88;;
46689;SDS011;32423;45.398;10.874;2023-07-29T00:25:47;6.90;;;2.72;;
46689;SDS011;32423;45.398;10.874;2023-07-29T00:28:39;7.18;;;3.30;;
46689;SDS011;32423;45.398;10.874;2023-07-29T00:31:36;6.97;;;3.17;;
46689;SDS011;32423;45.398;10.874;2023-07-29T00:34:25;8.52;;;3.00;;
46689;SDS011;32423;45.398;10.874;2023-07-29T00:37:20;5.57;;;2.55;;
46689;SDS011;32423;45.398;10.874;2023-07-29T00:40:19;7.57;;;2.75;;
46689;SDS011;32423;45.398;10.874;2023-07-29T00:43:12;8.05;;;3.78;;
46689;SDS011;32423;45.398;10.874;2023-07-29T00:46:04;12.07;;;3.38;;
46689;SDS011;32423;45.398;10.874;2023-07-29T00:48:57;9.50;;;3.55;;
46689;SDS011;32423;45.398;10.874;2023-07-29T00:51:52;8.77;;;3.15;;
46689;SDS011;32423;45.398;10.874;2023-07-29T00:54:46;11.15;;;3.42;;
46689;SDS011;32423;45.398;10.874;2023-07-29T00:57:41;6.97;;;3.10;;
46689;SDS011;32423;45.398;10.874;2023-07-29T01:00:35;6.95;;;3.00;;
46689;SDS011;32423;45.398;10.874;2023-07-29T01:03:28;4.50;;;2.97;;
46689;SDS011;32423;45.398;10.874;2023-07-29T01:06:29;6.57;;;3.10;;
46689;SDS011;32423;45.398;10.874;2023-07-29T01:09:48;7.85;;;3.45;;
46689;SDS011;32423;45.398;10.874;2023-07-29T01:12:51;12.75;;;3.50;;
46689;SDS011;32423;45.398;10.874;2023-07-29T01:15:55;4.40;;;2.80;;
46689;SDS011;32423;45.398;10.874;2023-07-29T01:18:52;5.95;;;3.40;;
46689;SDS011;32423;45.398;10.874;2023-07-29T01:21:51;5.32;;;3.28;;
46689;SDS011;32423;45.398;10.874;2023-07-29T01:24:46;7.57;;;3.72;;
46689;SDS011;32423;45.398;10.874;2023-07-29T01:27:38;7.10;;;3.40;;
46689;SDS011;32423;45.398;10.874;2023-07-29T01:30:33;5.95;;;3.47;;
46689;SDS011;32423;45.398;10.874;2023-07-29T01:33:42;4.82;;;3.15;;
46689;SDS011;32423;45.398;10.874;2023-07-29T01:36:38;7.72;;;3.70;;
46689;SDS011;32423;45.398;10.874;2023-07-29T01:39:36;6.45;;;3.75;;
46689;SDS011;32423;45.398;10.874;2023-07-29T01:42:32;10.80;;;3.25;;
46689;SDS011;32423;45.398;10.874;2023-07-29T01:45:27;6.30;;;3.33;;
46689;SDS011;32423;45.398;10.874;2023-07-29T01:48:22;5.35;;;3.55;;
46689;SDS011;32423;45.398;10.874;2023-07-29T01:51:16;9.63;;;2.85;;
46689;SDS011;32423;45.398;10.874;2023-07-29T01:54:11;7.70;;;3.83;;
46689;SDS011;32423;45.398;10.874;2023-07-29T01:57:03;6.30;;;3.60;;
46689;SDS011;32423;45.398;10.874;2023-07-29T01:59:58;7.30;;;3.72;;
46689;SDS011;32423;45.398;10.874;2023-07-29T02:03:02;7.78;;;3.70;;
46689;SDS011;32423;45.398;10.874;2023-07-29T02:05:56;10.45;;;3.15;;
46689;SDS011;32423;45.398;10.874;2023-07-29T02:08:51;10.15;;;3.42;;
46689;SDS011;32423;45.398;10.874;2023-07-29T02:11:45;6.25;;;3.10;;
46689;SDS011;32423;45.398;10.874;2023-07-29T02:14:37;6.32;;;3.50;;
46689;SDS011;32423;45.398;10.874;2023-07-29T02:17:29;6.38;;;3.50;;
46689;SDS011;32423;45.398;10.874;2023-07-29T02:20:24;16.30;;;3.70;;
46689;SDS011;32423;45.398;10.874;2023-07-29T02:23:19;10.43;;;3.38;;
46689;SDS011;32423;45.398;10.874;2023-07-29T02:26:13;10.77;;;4.28;;
46689;SDS011;32423;45.398;10.874;2023-07-29T02:29:06;14.68;;;4.07;;
46689;SDS011;32423;45.398;10.874;2023-07-29T02:31:58;9.65;;;3.90;;
46689;SDS011;32423;45.398;10.874;2023-07-29T02:34:54;8.63;;;3.60;;
46689;SDS011;32423;45.398;10.874;2023-07-29T02:37:48;9.02;;;3.70;;
46689;SDS011;32423;45.398;10.874;2023-07-29T02:40:43;10.10;;;4.22;;
46689;SDS011;32423;45.398;10.874;2023-07-29T02:43:35;4.72;;;2.55;;
46689;SDS011;32423;45.398;10.874;2023-07-29T02:46:27;9.25;;;3.85;;
46689;SDS011;32423;45.398;10.874;2023-07-29T02:49:22;9.23;;;4.15;;
46689;SDS011;32423;45.398;10.874;2023-07-29T02:52:14;6.53;;;3.78;;
46689;SDS011;32423;45.398;10.874;2023-07-29T02:55:09;6.93;;;3.90;;
46689;SDS011;32423;45.398;10.874;2023-07-29T02:58:03;7.43;;;3.45;;
46689;SDS011;32423;45.398;10.874;2023-07-29T03:01:07;6.75;;;3.70;;
46689;SDS011;32423;45.398;10.874;2023-07-29T03:04:01;7.03;;;3.63;;
46689;SDS011;32423;45.398;10.874;2023-07-29T03:06:55;15.00;;;4.53;;
46689;SDS011;32423;45.398;10.874;2023-07-29T03:09:45;9.55;;;3.88;;
46689;SDS011;32423;45.398;10.874;2023-07-29T03:12:39;7.88;;;3.75;;
46689;SDS011;32423;45.398;10.874;2023-07-29T03:15:34;6.07;;;3.72;;
46689;SDS011;32423;45.398;10.874;2023-07-29T03:18:31;9.00;;;3.85;;
46689;SDS011;32423;45.398;10.874;2023-07-29T03:21:26;12.45;;;2.70;;
46689;SDS011;32423;45.398;10.874;2023-07-29T03:24:18;5.55;;;2.70;;
46689;SDS011;32423;45.398;10.874;2023-07-29T03:27:12;4.72;;;2.60;;
46689;SDS011;32423;45.398;10.874;2023-07-29T03:30:05;7.10;;;3.03;;
46689;SDS011;32423;45.398;10.874;2023-07-29T03:32:53;6.35;;;3.00;;
46689;SDS011;32423;45.398;10.874;2023-07-29T03:35:45;7.40;;;3.13;;
46689;SDS011;32423;45.398;10.874;2023-07-29T03:38:39;8.73;;;3.08;;
46689;SDS011;32423;45.398;10.874;2023-07-29T03:41:33;7.05;;;3.33;;
46689;SDS011;32423;45.398;10.874;2023-07-29T03:44:25;9.60;;;3.15;;
46689;SDS011;32423;45.398;10.874;2023-07-29T03:47:20;6.78;;;2.92;;
46689;SDS011;32423;45.398;10.874;2023-07-29T03:50:09;7.10;;;3.25;;
46689;SDS011;32423;45.398;10.874;2023-07-29T03:53:04;6.00;;;2.75;;
46689;SDS011;32423;45.398;10.874;2023-07-29T03:55:59;4.30;;;3.30;;
46689;SDS011;32423;45.398;10.874;2023-07-29T03:58:56;6.72;;;3.35;;
46689;SDS011;32423;45.398;10.874;2023-07-29T04:01:56;5.10;;;2.92;;
46689;SDS011;32423;45.398;10.874;2023-07-29T04:04:51;8.43;;;3.58;;
46689;SDS011;32423;45.398;10.874;2023-07-29T04:07:45;4.43;;;3.20;;
46689;SDS011;32423;45.398;10.874;2023-07-29T04:10:40;8.02;;;2.83;;
46689;SDS011;32423;45.398;10.874;2023-07-29T04:13:32;5.78;;;2.92;;
46689;SDS011;32423;45.398;10.874;2023-07-29T04:16:24;4.80;;;2.67;;
46689;SDS011;32423;45.398;10.874;2023-07-29T04:19:16;6.60;;;3.10;;
46689;SDS011;32423;45.398;10.874;2023-07-29T04:22:06;5.15;;;2.70;;
46689;SDS011;32423;45.398;10.874;2023-07-29T04:25:04;4.78;;;3.25;;
46689;SDS011;32423;45.398;10.874;2023-07-29T04:27:59;7.97;;;3.80;;
46689;SDS011;32423;45.398;10.874;2023-07-29T04:30:54;6.88;;;2.90;;
46689;SDS011;32423;45.398;10.874;2023-07-29T04:33:49;12.77;;;4.20;;
46689;SDS011;32423;45.398;10.874;2023-07-29T04:36:43;11.90;;;3.35;;
46689;SDS011;32423;45.398;10.874;2023-07-29T04:39:38;6.82;;;2.70;;
46689;SDS011;32423;45.398;10.874;2023-07-29T04:42:28;7.57;;;3.55;;
46689;SDS011;32423;45.398;10.874;2023-07-29T04:45:22;6.72;;;3.10;;
46689;SDS011;32423;45.398;10.874;2023-07-29T04:48:20;5.38;;;2.95;;
46689;SDS011;32423;45.398;10.874;2023-07-29T04:51:15;9.48;;;3.50;;
46689;SDS011;32423;45.398;10.874;2023-07-29T04:54:09;5.18;;;2.88;;
46689;SDS011;32423;45.398;10.874;2023-07-29T04:57:04;8.13;;;3.80;;
46689;SDS011;32423;45.398;10.874;2023-07-29T04:59:58;7.63;;;3.10;;
46689;SDS011;32423;45.398;10.874;2023-07-29T05:02:55;6.90;;;3.30;;
46689;SDS011;32423;45.398;10.874;2023-07-29T05:05:50;5.05;;;2.28;;
46689;SDS011;32423;45.398;10.874;2023-07-29T05:08:44;13.18;;;3.20;;
46689;SDS011;32423;45.398;10.874;2023-07-29T05:11:39;6.97;;;3.50;;
46689;SDS011;32423;45.398;10.874;2023-07-29T05:14:34;8.77;;;3.45;;
46689;SDS011;32423;45.398;10.874;2023-07-29T05:17:28;8.65;;;3.33;;
46689;SDS011;32423;45.398;10.874;2023-07-29T05:23:15;13.10;;;4.40;;
46689;SDS011;32423;45.398;10.874;2023-07-29T05:26:07;6.90;;;3.58;;
46689;SDS011;32423;45.398;10.874;2023-07-29T05:29:02;6.28;;;2.90;;
46689;SDS011;32423;45.398;10.874;2023-07-29T05:31:51;8.15;;;2.90;;
46689;SDS011;32423;45.398;10.874;2023-07-29T05:34:43;9.55;;;2.75;;
46689;SDS011;32423;45.398;10.874;2023-07-29T05:37:39;11.60;;;3.35;;
46689;SDS011;32423;45.398;10.874;2023-07-29T05:40:33;7.53;;;3.92;;
46689;SDS011;32423;45.398;10.874;2023-07-29T05:43:28;10.77;;;3.97;;
46689;SDS011;32423;45.398;10.874;2023-07-29T05:46:22;24.95;;;4.35;;
46689;SDS011;32423;45.398;10.874;2023-07-29T05:49:14;5.78;;;3.10;;
46689;SDS011;32423;45.398;10.874;2023-07-29T05:52:10;11.43;;;3.58;;
46689;SDS011;32423;45.398;10.874;2023-07-29T05:55:02;15.23;;;3.95;;
46689;SDS011;32423;45.398;10.874;2023-07-29T05:57:56;11.80;;;3.90;;
46689;SDS011;32423;45.398;10.874;2023-07-29T06:00:51;8.95;;;3.45;;
46689;SDS011;32423;45.398;10.874;2023-07-29T06:03:45;9.75;;;4.32;;
46689;SDS011;32423;45.398;10.874;2023-07-29T06:06:40;12.63;;;3.88;;
46689;SDS011;32423;45.398;10.874;2023-07-29T06:09:34;6.03;;;3.88;;
46689;SDS011;32423;45.398;10.874;2023-07-29T06:12:29;12.15;;;4.53;;
46689;SDS011;32423;45.398;10.874;2023-07-29T06:15:23;43.85;;;6.55;;
46689;SDS011;32423;45.398;10.874;2023-07-29T06:18:15;12.48;;;5.40;;
46689;SDS011;32423;45.398;10.874;2023-07-29T06:21:10;7.63;;;4.10;;
46689;SDS011;32423;45.398;10.874;2023-07-29T06:24:06;6.97;;;3.85;;
46689;SDS011;32423;45.398;10.874;2023-07-29T06:27:01;6.40;;;3.40;;
46689;SDS011;32423;45.398;10.874;2023-07-29T06:29:55;8.75;;;3.60;;
46689;SDS011;32423;45.398;10.874;2023-07-29T06:32:50;6.50;;;3.58;;
46689;SDS011;32423;45.398;10.874;2023-07-29T06:35:44;9.15;;;4.18;;
46689;SDS011;32423;45.398;10.874;2023-07-29T06:41:31;10.55;;;5.78;;
46689;SDS011;32423;45.398;10.874;2023-07-29T06:44:25;9.95;;;4.72;;
46689;SDS011;32423;45.398;10.874;2023-07-29T06:47:18;9.80;;;5.88;;
46689;SDS011;32423;45.398;10.874;2023-07-29T06:50:10;13.60;;;4.47;;
46689;SDS011;32423;45.398;10.874;2023-07-29T06:55:54;8.00;;;5.22;;
46689;SDS011;32423;45.398;10.874;2023-07-29T07:01:38;13.35;;;4.55;;
46689;SDS011;32423;45.398;10.874;2023-07-29T07:04:30;14.65;;;5.55;;
46689;SDS011;32423;45.398;10.874;2023-07-29T07:07:25;17.02;;;7.05;;
46689;SDS011;32423;45.398;10.874;2023-07-29T07:10:19;17.20;;;5.88;;
46689;SDS011;32423;45.398;10.874;2023-07-29T07:13:14;12.57;;;6.85;;
46689;SDS011;32423;45.398;10.874;2023-07-29T07:16:06;16.38;;;5.68;;
46689;SDS011;32423;45.398;10.874;2023-07-29T07:18:58;12.63;;;5.50;;
46689;SDS011;32423;45.398;10.874;2023-07-29T07:21:53;27.13;;;5.65;;
46689;SDS011;32423;45.398;10.874;2023-07-29T07:24:48;13.55;;;6.82;;
46689;SDS011;32423;45.398;10.874;2023-07-29T07:30:35;10.93;;;5.15;;
46689;SDS011;32423;45.398;10.874;2023-07-29T07:33:30;11.68;;;6.22;;
46689;SDS011;32423;45.398;10.874;2023-07-29T07:36:25;14.68;;;6.00;;
46689;SDS011;32423;45.398;10.874;2023-07-29T07:39:19;11.02;;;6.47;;
46689;SDS011;32423;45.398;10.874;2023-07-29T07:42:14;11.77;;;5.85;;
46689;SDS011;32423;45.398;10.874;2023-07-29T07:45:09;12.73;;;4.72;;
46689;SDS011;32423;45.398;10.874;2023-07-29T07:48:03;11.30;;;4.65;;
46689;SDS011;32423;45.398;10.874;2023-07-29T07:50:56;13.85;;;6.75;;
46689;SDS011;32423;45.398;10.874;2023-07-29T07:53:46;14.77;;;7.70;;
46689;SDS011;32423;45.398;10.874;2023-07-29T07:56:36;13.93;;;8.38;;
46689;SDS011;32423;45.398;10.874;2023-07-29T07:59:31;18.63;;;8.65;;
46689;SDS011;32423;45.398;10.874;2023-07-29T08:02:25;13.15;;;7.55;;
46689;SDS011;32423;45.398;10.874;2023-07-29T08:05:17;14.05;;;6.47;;
46689;SDS011;32423;45.398;10.874;2023-07-29T08:08:11;8.23;;;5.15;;
46689;SDS011;32423;45.398;10.874;2023-07-29T08:13:58;11.93;;;5.28;;
46689;SDS011;32423;45.398;10.874;2023-07-29T08:16:53;13.27;;;4.15;;
46689;SDS011;32423;45.398;10.874;2023-07-29T08:19:47;26.77;;;6.15;;
46689;SDS011;32423;45.398;10.874;2023-07-29T08:22:37;14.18;;;6.03;;
46689;SDS011;32423;45.398;10.874;2023-07-29T08:25:32;12.85;;;5.15;;
46689;SDS011;32423;45.398;10.874;2023-07-29T08:28:22;11.57;;;5.72;;
46689;SDS011;32423;45.398;10.874;2023-07-29T08:31:17;7.40;;;4.05;;
46689;SDS011;32423;45.398;10.874;2023-07-29T08:34:09;14.52;;;4.07;;
46689;SDS011;32423;45.398;10.874;2023-07-29T08:37:03;7.18;;;3.03;;
46689;SDS011;32423;45.398;10.874;2023-07-29T08:39:58;7.25;;;3.10;;
46689;SDS011;32423;45.398;10.874;2023-07-29T08:42:52;8.40;;;3.35;;
46689;SDS011;32423;45.398;10.874;2023-07-29T08:45:50;6.05;;;3.33;;
46689;SDS011;32423;45.398;10.874;2023-07-29T08:48:43;9.82;;;3.70;;
46689;SDS011;32423;45.398;10.874;2023-07-29T08:51:37;6.47;;;4.00;;
46689;SDS011;32423;45.398;10.874;2023-07-29T08:54:28;5.30;;;2.58;;
46689;SDS011;32423;45.398;10.874;2023-07-29T08:57:22;6.25;;;3.95;;
46689;SDS011;32423;45.398;10.874;2023-07-29T09:00:12;9.63;;;3.78;;
46689;SDS011;32423;45.398;10.874;2023-07-29T09:03:08;5.53;;;3.15;;
46689;SDS011;32423;45.398;10.874;2023-07-29T09:06:00;7.57;;;2.85;;
46689;SDS011;32423;45.398;10.874;2023-07-29T09:08:54;15.70;;;4.70;;
46689;SDS011;32423;45.398;10.874;2023-07-29T09:11:47;9.10;;;5.70;;
46689;SDS011;32423;45.398;10.874;2023-07-29T09:14:39;11.27;;;3.42;;
46689;SDS011;32423;45.398;10.874;2023-07-29T09:20:29;14.40;;;3.20;;
46689;SDS011;32423;45.398;10.874;2023-07-29T09:23:25;6.80;;;3.00;;
46689;SDS011;32423;45.398;10.874;2023-07-29T09:26:18;6.68;;;3.17;;
46689;SDS011;32423;45.398;10.874;2023-07-29T09:29:15;7.20;;;4.07;;
46689;SDS011;32423;45.398;10.874;2023-07-29T09:32:21;11.82;;;3.75;;
46689;SDS011;32423;45.398;10.874;2023-07-29T09:35:15;7.43;;;3.67;;
46689;SDS011;32423;45.398;10.874;2023-07-29T09:38:07;5.95;;;4.72;;
46689;SDS011;32423;45.398;10.874;2023-07-29T09:41:06;8.25;;;5.43;;
46689;SDS011;32423;45.398;10.874;2023-07-29T09:43:57;6.18;;;4.65;;
46689;SDS011;32423;45.398;10.874;2023-07-29T09:46:50;7.75;;;4.20;;
46689;SDS011;32423;45.398;10.874;2023-07-29T09:49:42;8.13;;;3.67;;
46689;SDS011;32423;45.398;10.874;2023-07-29T09:52:34;6.57;;;3.45;;
46689;SDS011;32423;45.398;10.874;2023-07-29T09:55:26;6.45;;;3.65;;
46689;SDS011;32423;45.398;10.874;2023-07-29T09:58:30;8.38;;;3.30;;
46689;SDS011;32423;45.398;10.874;2023-07-29T10:01:24;10.05;;;4.20;;
46689;SDS011;32423;45.398;10.874;2023-07-29T10:04:19;12.38;;;5.38;;
46689;SDS011;32423;45.398;10.874;2023-07-29T10:07:11;4.68;;;2.15;;
46689;SDS011;32423;45.398;10.874;2023-07-29T10:10:04;5.95;;;2.75;;
46689;SDS011;32423;45.398;10.874;2023-07-29T10:13:00;8.20;;;3.13;;
46689;SDS011;32423;45.398;10.874;2023-07-29T10:15:51;14.45;;;5.72;;
46689;SDS011;32423;45.398;10.874;2023-07-29T10:18:45;6.13;;;3.13;;
46689;SDS011;32423;45.398;10.874;2023-07-29T10:21:41;10.80;;;3.17;;
46689;SDS011;32423;45.398;10.874;2023-07-29T10:24:40;3.88;;;2.70;;
46689;SDS011;32423;45.398;10.874;2023-07-29T10:27:42;7.53;;;2.65;;
46689;SDS011;32423;45.398;10.874;2023-07-29T10:30:38;6.82;;;2.88;;
46689;SDS011;32423;45.398;10.874;2023-07-29T10:33:32;6.22;;;2.88;;
46689;SDS011;32423;45.398;10.874;2023-07-29T10:36:29;8.98;;;2.78;;
46689;SDS011;32423;45.398;10.874;2023-07-29T10:39:21;12.80;;;4.25;;
46689;SDS011;32423;45.398;10.874;2023-07-29T10:42:16;7.45;;;3.67;;
46689;SDS011;32423;45.398;10.874;2023-07-29T10:54:23;5.60;;;3.45;;
46689;SDS011;32423;45.398;10.874;2023-07-29T10:57:15;7.85;;;3.95;;
46689;SDS011;32423;45.398;10.874;2023-07-29T11:00:19;7.50;;;4.85;;
46689;SDS011;32423;45.398;10.874;2023-07-29T11:03:22;12.05;;;3.40;;
46689;SDS011;32423;45.398;10.874;2023-07-29T11:06:18;9.02;;;3.38;;
46689;SDS011;32423;45.398;10.874;2023-07-29T11:12:43;8.50;;;4.38;;
46689;SDS011;32423;45.398;10.874;2023-07-29T11:15:43;6.55;;;3.72;;
46689;SDS011;32423;45.398;10.874;2023-07-29T11:18:42;5.80;;;3.08;;
46689;SDS011;32423;45.398;10.874;2023-07-29T11:21:36;8.50;;;3.53;;
46689;SDS011;32423;45.398;10.874;2023-07-29T11:27:22;8.02;;;3.92;;
46689;SDS011;32423;45.398;10.874;2023-07-29T11:30:14;5.75;;;3.22;;
46689;SDS011;32423;45.398;10.874;2023-07-29T11:33:07;6.28;;;3.47;;
46689;SDS011;32423;45.398;10.874;2023-07-29T11:36:03;5.72;;;2.88;;
46689;SDS011;32423;45.398;10.874;2023-07-29T11:38:59;13.95;;;3.92;;
46689;SDS011;32423;45.398;10.874;2023-07-29T11:41:57;7.80;;;3.08;;
46689;SDS011;32423;45.398;10.874;2023-07-29T11:44:49;4.32;;;2.35;;
46689;SDS011;32423;45.398;10.874;2023-07-29T11:47:44;10.27;;;3.65;;
46689;SDS011;32423;45.398;10.874;2023-07-29T11:50:39;5.05;;;2.70;;
46689;SDS011;32423;45.398;10.874;2023-07-29T11:53:32;8.05;;;2.70;;
46689;SDS011;32423;45.398;10.874;2023-07-29T11:56:22;11.30;;;3.35;;
46689;SDS011;32423;45.398;10.874;2023-07-29T11:59:19;8.57;;;3.10;;
46689;SDS011;32423;45.398;10.874;2023-07-29T12:02:16;8.13;;;2.50;;
46689;SDS011;32423;45.398;10.874;2023-07-29T12:05:07;9.95;;;3.13;;
46689;SDS011;32423;45.398;10.874;2023-07-29T12:08:00;6.65;;;2.50;;
46689;SDS011;32423;45.398;10.874;2023-07-29T12:10:55;5.40;;;2.50;;
46689;SDS011;32423;45.398;10.874;2023-07-29T12:13:50;4.57;;;2.10;;
46689;SDS011;32423;45.398;10.874;2023-07-29T12:16:47;5.63;;;2.53;;
46689;SDS011;32423;45.398;10.874;2023-07-29T12:19:41;6.22;;;3.17;;
46689;SDS011;32423;45.398;10.874;2023-07-29T12:22:36;5.97;;;3.13;;
46689;SDS011;32423;45.398;10.874;2023-07-29T12:28:20;5.63;;;2.65;;
46689;SDS011;32423;45.398;10.874;2023-07-29T12:31:13;13.00;;;2.75;;
46689;SDS011;32423;45.398;10.874;2023-07-29T12:34:08;4.28;;;2.67;;
46689;SDS011;32423;45.398;10.874;2023-07-29T12:37:06;8.43;;;3.22;;
46689;SDS011;32423;45.398;10.874;2023-07-29T12:40:01;9.07;;;2.75;;
46689;SDS011;32423;45.398;10.874;2023-07-29T12:45:48;5.45;;;2.00;;
46689;SDS011;32423;45.398;10.874;2023-07-29T12:48:40;7.00;;;2.22;;
46689;SDS011;32423;45.398;10.874;2023-07-29T12:51:34;3.55;;;2.22;;
46689;SDS011;32423;45.398;10.874;2023-07-29T12:54:25;13.57;;;2.13;;
46689;SDS011;32423;45.398;10.874;2023-07-29T12:57:20;4.32;;;3.00;;
46689;SDS011;32423;45.398;10.874;2023-07-29T13:00:12;4.50;;;2.13;;
46689;SDS011;32423;45.398;10.874;2023-07-29T13:03:07;8.27;;;2.90;;
46689;SDS011;32423;45.398;10.874;2023-07-29T13:06:01;2.47;;;1.70;;
46689;SDS011;32423;45.398;10.874;2023-07-29T13:08:53;13.23;;;1.85;;
46689;SDS011;32423;45.398;10.874;2023-07-29T13:14:37;5.80;;;2.10;;
46689;SDS011;32423;45.398;10.874;2023-07-29T13:17:32;6.45;;;2.00;;
46689;SDS011;32423;45.398;10.874;2023-07-29T13:20:26;7.75;;;2.13;;
46689;SDS011;32423;45.398;10.874;2023-07-29T13:23:16;6.10;;;2.00;;
46689;SDS011;32423;45.398;10.874;2023-07-29T13:26:10;3.95;;;2.17;;
46689;SDS011;32423;45.398;10.874;2023-07-29T13:31:57;10.88;;;1.92;;
46689;SDS011;32423;45.398;10.874;2023-07-29T13:34:49;5.40;;;2.65;;
46689;SDS011;32423;45.398;10.874;2023-07-29T13:37:44;6.68;;;2.17;;
46689;SDS011;32423;45.398;10.874;2023-07-29T13:40:39;3.67;;;1.77;;
46689;SDS011;32423;45.398;10.874;2023-07-29T13:43:33;5.03;;;2.10;;
46689;SDS011;32423;45.398;10.874;2023-07-29T13:49:15;270.52;;;58.50;;
46689;SDS011;32423;45.398;10.874;2023-07-29T13:52:09;320.00;;;66.97;;
46689;SDS011;32423;45.398;10.874;2023-07-29T13:57:49;118.70;;;25.67;;
46689;SDS011;32423;45.398;10.874;2023-07-29T14:00:39;45.17;;;10.52;;
46689;SDS011;32423;45.398;10.874;2023-07-29T14:03:34;50.50;;;12.13;;
46689;SDS011;32423;45.398;10.874;2023-07-29T14:09:18;33.53;;;9.15;;
46689;SDS011;32423;45.398;10.874;2023-07-29T14:15:02;23.95;;;7.18;;
46689;SDS011;32423;45.398;10.874;2023-07-29T14:20:46;14.60;;;4.35;;
46689;SDS011;32423;45.398;10.874;2023-07-29T14:26:27;8.63;;;2.75;;
46689;SDS011;32423;45.398;10.874;2023-07-29T14:29:23;5.07;;;2.67;;
46689;SDS011;32423;45.398;10.874;2023-07-29T14:32:15;9.70;;;3.13;;
46689;SDS011;32423;45.398;10.874;2023-07-29T14:38:01;8.35;;;2.60;;
46689;SDS011;32423;45.398;10.874;2023-07-29T14:40:51;5.85;;;2.22;;
46689;SDS011;32423;45.398;10.874;2023-07-29T14:43:43;6.00;;;2.90;;
46689;SDS011;32423;45.398;10.874;2023-07-29T14:46:37;7.45;;;2.45;;
46689;SDS011;32423;45.398;10.874;2023-07-29T14:49:29;2.45;;;1.60;;
46689;SDS011;32423;45.398;10.874;2023-07-29T14:52:24;6.53;;;2.40;;
46689;SDS011;32423;45.398;10.874;2023-07-29T14:55:19;5.72;;;2.20;;
46689;SDS011;32423;45.398;10.874;2023-07-29T14:58:11;4.15;;;1.60;;
46689;SDS011;32423;45.398;10.874;2023-07-29T15:01:06;5.93;;;1.90;;
46689;SDS011;32423;45.398;10.874;2023-07-29T15:03:58;3.00;;;1.75;;
46689;SDS011;32423;45.398;10.874;2023-07-29T15:06:50;7.57;;;2.83;;
46689;SDS011;32423;45.398;10.874;2023-07-29T15:09:45;4.13;;;2.20;;
46689;SDS011;32423;45.398;10.874;2023-07-29T15:12:37;9.75;;;2.38;;
46689;SDS011;32423;45.398;10.874;2023-07-29T15:15:31;3.75;;;2.25;;
46689;SDS011;32423;45.398;10.874;2023-07-29T15:18:25;7.70;;;2.30;;
46689;SDS011;32423;45.398;10.874;2023-07-29T15:21:23;4.90;;;2.10;;
46689;SDS011;32423;45.398;10.874;2023-07-29T15:24:18;5.15;;;1.35;;
46689;SDS011;32423;45.398;10.874;2023-07-29T15:27:05;3.30;;;1.77;;
46689;SDS011;32423;45.398;10.874;2023-07-29T15:30:00;5.63;;;1.50;;
46689;SDS011;32423;45.398;10.874;2023-07-29T15:32:54;4.03;;;2.28;;
46689;SDS011;32423;45.398;10.874;2023-07-29T15:38:42;6.93;;;1.83;;
46689;SDS011;32423;45.398;10.874;2023-07-29T15:44:26;6.45;;;1.40;;
46689;SDS011;32423;45.398;10.874;2023-07-29T15:47:18;3.22;;;1.98;;
46689;SDS011;32423;45.398;10.874;2023-07-29T15:50:10;4.60;;;2.17;;
46689;SDS011;32423;45.398;10.874;2023-07-29T15:55:53;5.75;;;2.05;;
46689;SDS011;32423;45.398;10.874;2023-07-29T16:01:40;3.25;;;1.90;;
46689;SDS011;32423;45.398;10.874;2023-07-29T16:04:32;3.65;;;1.88;;
46689;SDS011;32423;45.398;10.874;2023-07-29T16:10:19;3.75;;;2.03;;
46689;SDS011;32423;45.398;10.874;2023-07-29T16:13:14;6.60;;;2.05;;
46689;SDS011;32423;45.398;10.874;2023-07-29T16:19:00;3.00;;;1.70;;
46689;SDS011;32423;45.398;10.874;2023-07-29T16:21:52;3.22;;;1.75;;
46689;SDS011;32423;45.398;10.874;2023-07-29T16:24:47;3.45;;;2.22;;
46689;SDS011;32423;45.398;10.874;2023-07-29T16:27:39;4.78;;;2.10;;
46689;SDS011;32423;45.398;10.874;2023-07-29T16:30:31;2.88;;;2.00;;
46689;SDS011;32423;45.398;10.874;2023-07-29T16:36:17;2.88;;;1.90;;
46689;SDS011;32423;45.398;10.874;2023-07-29T16:42:04;4.80;;;1.98;;
46689;SDS011;32423;45.398;10.874;2023-07-29T16:44:57;5.25;;;1.75;;
46689;SDS011;32423;45.398;10.874;2023-07-29T16:47:49;6.68;;;1.95;;
46689;SDS011;32423;45.398;10.874;2023-07-29T16:53:33;14.45;;;2.75;;
46689;SDS011;32423;45.398;10.874;2023-07-29T16:56:23;12.70;;;2.92;;
46689;SDS011;32423;45.398;10.874;2023-07-29T16:59:11;8.50;;;2.10;;
46689;SDS011;32423;45.398;10.874;2023-07-29T17:02:05;5.78;;;1.73;;
46689;SDS011;32423;45.398;10.874;2023-07-29T17:07:52;3.05;;;1.60;;
46689;SDS011;32423;45.398;10.874;2023-07-29T17:10:42;4.45;;;2.17;;
46689;SDS011;32423;45.398;10.874;2023-07-29T17:13:34;3.33;;;2.08;;
46689;SDS011;32423;45.398;10.874;2023-07-29T17:16:26;6.57;;;3.03;;
46689;SDS011;32423;45.398;10.874;2023-07-29T17:19:18;4.45;;;1.95;;
46689;SDS011;32423;45.398;10.874;2023-07-29T17:22:13;5.20;;;2.40;;
46689;SDS011;32423;45.398;10.874;2023-07-29T17:25:05;8.45;;;2.42;;
46689;SDS011;32423;45.398;10.874;2023-07-29T17:27:58;7.32;;;2.30;;
46689;SDS011;32423;45.398;10.874;2023-07-29T17:30:51;19.98;;;3.55;;
46689;SDS011;32423;45.398;10.874;2023-07-29T17:33:44;6.45;;;1.92;;
46689;SDS011;32423;45.398;10.874;2023-07-29T17:39:30;5.15;;;2.50;;
46689;SDS011;32423;45.398;10.874;2023-07-29T17:42:25;6.97;;;2.85;;
46689;SDS011;32423;45.398;10.874;2023-07-29T17:45:17;4.50;;;2.33;;
46689;SDS011;32423;45.398;10.874;2023-07-29T17:48:09;4.65;;;1.77;;
46689;SDS011;32423;45.398;10.874;2023-07-29T17:51:02;4.80;;;1.92;;
46689;SDS011;32423;45.398;10.874;2023-07-29T17:53:56;5.05;;;2.38;;
46689;SDS011;32423;45.398;10.874;2023-07-29T17:56:51;4.43;;;2.42;;
46689;SDS011;32423;45.398;10.874;2023-07-29T17:59:43;3.83;;;2.55;;
46689;SDS011;32423;45.398;10.874;2023-07-29T18:02:36;5.07;;;2.03;;
46689;SDS011;32423;45.398;10.874;2023-07-29T18:05:30;3.38;;;2.00;;
46689;SDS011;32423;45.398;10.874;2023-07-29T18:08:26;14.23;;;3.60;;
46689;SDS011;32423;45.398;10.874;2023-07-29T18:11:18;9.85;;;2.72;;
46689;SDS011;32423;45.398;10.874;2023-07-29T18:14:12;8.15;;;2.95;;
46689;SDS011;32423;45.398;10.874;2023-07-29T18:17:04;6.65;;;1.92;;
46689;SDS011;32423;45.398;10.874;2023-07-29T18:19:56;5.53;;;2.38;;
46689;SDS011;32423;45.398;10.874;2023-07-29T18:22:49;5.00;;;2.25;;
46689;SDS011;32423;45.398;10.874;2023-07-29T18:25:43;6.32;;;2.38;;
46689;SDS011;32423;45.398;10.874;2023-07-29T18:31:25;3.78;;;2.08;;
46689;SDS011;32423;45.398;10.874;2023-07-29T18:34:20;6.65;;;2.55;;
46689;SDS011;32423;45.398;10.874;2023-07-29T18:37:14;4.00;;;1.83;;
46689;SDS011;32423;45.398;10.874;2023-07-29T18:40:07;4.22;;;2.28;;
46689;SDS011;32423;45.398;10.874;2023-07-29T18:43:02;6.70;;;2.45;;
46689;SDS011;32423;45.398;10.874;2023-07-29T18:45:54;4.22;;;2.53;;
46689;SDS011;32423;45.398;10.874;2023-07-29T18:48:48;6.88;;;2.13;;
46689;SDS011;32423;45.398;10.874;2023-07-29T18:51:41;6.63;;;2.45;;
46689;SDS011;32423;45.398;10.874;2023-07-29T18:54:35;4.18;;;2.15;;